San Miguel de Allende, Mexico

8:25 AM CDT on September 02, 2015 (GMT -0500)
La Lejona -Los Frailes | | Change Station
CLOSE
Current Station
Personal Weather Station
Location: San Miguel De Allende, GTO
Elevation: 6324 ft
Nearby Weather Stations

Elev 6324 ft 20.89 °N, 100.76 °W | Updated 4 minutes ago

Overcast
Overcast
61.8 °F
Feels Like 61.8 °F
N
0.0
Wind Variable Wind from ENE
Gusts 0.0 mph

Today
High -- | Low -- °F
--% Chance of Precip.
Yesterday
High -- | Low -- °F
Precip. -- in
7:26 AM 7:58 PM
Waning Gibbous, 80% visible
Pressure 30.36 in
Visibility 3.0 miles
Clouds Mostly Cloudy 1500 ft
Overcast 9000 ft
Dew Point 60 °F
Humidity 95%
Rainfall 0.02 in
Snow Depth Not available.
UV 0 out of 12
Pollen Not available.
Air Quality Not available.
Flu Activity Not available.
METAR MMQT 021245Z 10003KT 3SM BR HZ BKN015 OVC090 15/14 A3036 RMK 8/57/
Pressure 30.36 in
Visibility 3.0 miles
Clouds Mostly Cloudy 1500 ft
Overcast 9000 ft
Dew Point 60 °F
Humidity 95%
Rainfall 0.02 in
Snow Depth Not available.
UV 0 out of 12
Pollen Not available.
Air Quality Not available.
Flu Activity Not available.
METAR MMQT 021245Z 10003KT 3SM BR HZ BKN015 OVC090 15/14 A3036 RMK 8/57/

10-Day Weather Forecast

×

Almanac

Astronomy

Sep. 02, 2015 Rise Set
Actual Time
Civil Twilight
Nautical Twilight
Astronomical Twilight
Moon
Length of Visible Light
Length of Day
Tomorrow will be .
, % of the Moon is Illuminated

Today's Extremes

Country Highs Country Lows

Community

WunderPhotos

Upload Photos

1,851,749 photos uploaded!

WunderBlogs® & News

Nearby

Air Quality

  Air Quality AQ Index Pollutant
Not available.

Snow Depth

Station Depth Elevation

Earthquake Activity

City Distance Mag. Time & Date
Minimum magnitude displayed is 2.5.

Coastal Water Temperatures

Place Temperature

Stations

Nearby Weather Stations

Station Location Temp. Windchill Dew Point Humidity Wind Precip. Elev Updated Type